sensor_id;sensor_type;location;lat;lon;timestamp;pressure;altitude;pressure_sealevel;temperature;humidity
31096;BME280;17749;51.962;8.560;2023-01-26T06:03:04;100780.31;;;-1.34;100.00
31096;BME280;17749;51.962;8.560;2023-01-26T06:05:31;100785.59;;;-1.30;100.00
31096;BME280;17749;51.962;8.560;2023-01-26T06:08:06;100778.63;;;-1.28;100.00
31096;BME280;17749;51.962;8.560;2023-01-26T06:10:47;100771.66;;;-1.29;100.00
31096;BME280;17749;51.962;8.560;2023-01-26T06:13:25;100772.50;;;-1.32;100.00
31096;BME280;17749;51.962;8.560;2023-01-26T06:16:03;100782.97;;;-1.30;100.00
31096;BME280;17749;51.962;8.560;2023-01-26T06:18:34;100777.75;;;-1.29;100.00
31096;BME280;17749;51.962;8.560;2023-01-26T06:21:01;100770.81;;;-1.28;100.00
31096;BME280;17749;51.962;8.560;2023-01-26T06:23:28;100793.59;;;-1.23;100.00
31096;BME280;17749;51.962;8.560;2023-01-26T06:26:01;100788.41;;;-1.20;100.00
31096;BME280;17749;51.962;8.560;2023-01-26T06:28:29;100783.09;;;-1.24;100.00
31096;BME280;17749;51.962;8.560;2023-01-26T06:31:01;100786.53;;;-1.27;100.00
31096;BME280;17749;51.962;8.560;2023-01-26T06:33:31;100785.66;;;-1.27;100.00
31096;BME280;17749;51.962;8.560;2023-01-26T06:36:05;100790.94;;;-1.24;100.00
31096;BME280;17749;51.962;8.560;2023-01-26T06:38:33;100792.69;;;-1.23;100.00
31096;BME280;17749;51.962;8.560;2023-01-26T06:41:05;100789.09;;;-1.28;100.00
31096;BME280;17749;51.962;8.560;2023-01-26T06:43:34;100794.41;;;-1.25;100.00
31096;BME280;17749;51.962;8.560;2023-01-26T06:46:02;100794.41;;;-1.25;100.00
31096;BME280;17749;51.962;8.560;2023-01-26T06:48:32;100799.69;;;-1.22;100.00
31096;BME280;17749;51.962;8.560;2023-01-26T06:54:11;100791.81;;;-1.24;100.00
31096;BME280;17749;51.962;8.560;2023-01-26T06:56:58;100798.00;;;-1.19;100.00
31096;BME280;17749;51.962;8.560;2023-01-26T06:59:43;100790.16;;;-1.20;100.00
31096;BME280;17749;51.962;8.560;2023-01-26T07:02:22;100785.66;;;-1.27;100.00
31096;BME280;17749;51.962;8.560;2023-01-26T07:04:49;100782.97;;;-1.30;100.00
31096;BME280;17749;51.962;8.560;2023-01-26T07:07:17;100785.66;;;-1.27;100.00
31096;BME280;17749;51.962;8.560;2023-01-26T07:09:45;100794.41;;;-1.25;100.00
31096;BME280;17749;51.962;8.560;2023-01-26T07:12:12;100779.50;;;-1.29;100.00
31096;BME280;17749;51.962;8.560;2023-01-26T07:14:39;100794.41;;;-1.25;100.00
31096;BME280;17749;51.962;8.560;2023-01-26T07:17:06;100793.50;;;-1.27;100.00
31096;BME280;17749;51.962;8.560;2023-01-26T07:19:33;100773.41;;;-1.28;100.00
31096;BME280;17749;51.962;8.560;2023-01-26T07:22:00;100782.22;;;-1.23;100.00
31096;BME280;17749;51.962;8.560;2023-01-26T07:24:28;100780.41;;;-1.27;100.00
31096;BME280;17749;51.962;8.560;2023-01-26T07:26:55;100781.34;;;-1.25;100.00
31096;BME280;17749;51.962;8.560;2023-01-26T07:29:25;100792.69;;;-1.23;100.00
31096;BME280;17749;51.962;8.560;2023-01-26T07:31:52;100779.53;;;-1.28;100.00
31096;BME280;17749;51.962;8.560;2023-01-26T07:34:20;100794.41;;;-1.25;100.00
31096;BME280;17749;51.962;8.560;2023-01-26T07:36:50;100791.94;;;-1.18;100.00
31096;BME280;17749;51.962;8.560;2023-01-26T07:39:17;100790.06;;;-1.23;100.00
31096;BME280;17749;51.962;8.560;2023-01-26T07:41:45;100791.94;;;-1.18;100.00
31096;BME280;17749;51.962;8.560;2023-01-26T07:44:38;100792.97;;;-1.08;100.00
31096;BME280;17749;51.962;8.560;2023-01-26T07:47:05;100792.91;;;-1.11;100.00
31096;BME280;17749;51.962;8.560;2023-01-26T07:49:32;100797.41;;;-1.04;100.00
31096;BME280;17749;51.962;8.560;2023-01-26T07:51:59;100794.75;;;-1.05;100.00
31096;BME280;17749;51.962;8.560;2023-01-26T07:54:30;100790.44;;;-1.03;100.00
31096;BME280;17749;51.962;8.560;2023-01-26T07:56:57;100791.31;;;-1.03;100.00
31096;BME280;17749;51.962;8.560;2023-01-26T07:59:25;100791.34;;;-1.01;100.00
31096;BME280;17749;51.962;8.560;2023-01-26T08:01:53;100790.44;;;-1.03;100.00
31096;BME280;17749;51.962;8.560;2023-01-26T08:04:28;100796.53;;;-1.03;100.00
31096;BME280;17749;51.962;8.560;2023-01-26T08:06:55;100799.06;;;-1.07;100.00
31096;BME280;17749;51.962;8.560;2023-01-26T08:09:22;100803.41;;;-1.08;100.00
31096;BME280;17749;51.962;8.560;2023-01-26T08:11:51;100801.81;;;-1.00;100.00
31096;BME280;17749;51.962;8.560;2023-01-26T08:14:27;100795.72;;;-1.02;100.00
31096;BME280;17749;51.962;8.560;2023-01-26T08:17:12;100796.41;;;-1.12;100.00
31096;BME280;17749;51.962;8.560;2023-01-26T08:19:49;100800.84;;;-1.06;100.00
31096;BME280;17749;51.962;8.560;2023-01-26T08:22:17;100798.31;;;-1.02;100.00
31096;BME280;17749;51.962;8.560;2023-01-26T08:24:50;100807.97;;;-0.98;100.00
31096;BME280;17749;51.962;8.560;2023-01-26T08:27:23;100806.31;;;-0.93;100.00
31096;BME280;17749;51.962;8.560;2023-01-26T08:29:50;100815.94;;;-0.92;100.00
31096;BME280;17749;51.962;8.560;2023-01-26T08:32:17;100813.34;;;-0.90;100.00
31096;BME280;17749;51.962;8.560;2023-01-26T08:34:44;100813.38;;;-0.87;100.00
31096;BME280;17749;51.962;8.560;2023-01-26T08:37:11;100819.38;;;-0.93;100.00
31096;BME280;17749;51.962;8.560;2023-01-26T08:39:38;100812.47;;;-0.91;100.00
31096;BME280;17749;51.962;8.560;2023-01-26T08:42:05;100811.69;;;-0.85;100.00
31096;BME280;17749;51.962;8.560;2023-01-26T08:44:33;100809.09;;;-0.83;100.00
31096;BME280;17749;51.962;8.560;2023-01-26T08:47:00;100824.81;;;-0.83;100.00
31096;BME280;17749;51.962;8.560;2023-01-26T08:49:27;100823.84;;;-0.89;100.00
31096;BME280;17749;51.962;8.560;2023-01-26T08:51:53;100824.66;;;-0.91;100.00
31096;BME280;17749;51.962;8.560;2023-01-26T08:54:20;100819.50;;;-0.86;100.00
31096;BME280;17749;51.962;8.560;2023-01-26T08:56:47;100823.97;;;-0.81;100.00
31096;BME280;17749;51.962;8.560;2023-01-26T08:59:14;100816.13;;;-0.79;100.00
31096;BME280;17749;51.962;8.560;2023-01-26T09:01:41;100821.31;;;-0.82;100.00
31096;BME280;17749;51.962;8.560;2023-01-26T09:04:08;100823.06;;;-0.81;100.00
31096;BME280;17749;51.962;8.560;2023-01-26T09:06:35;100823.06;;;-0.81;100.00
31096;BME280;17749;51.962;8.560;2023-01-26T09:09:02;100822.28;;;-0.77;100.00
31096;BME280;17749;51.962;8.560;2023-01-26T09:11:29;100819.75;;;-0.71;100.00
31096;BME280;17749;51.962;8.560;2023-01-26T09:13:57;100822.47;;;-0.67;100.00
31096;BME280;17749;51.962;8.560;2023-01-26T09:16:24;100825.13;;;-0.65;100.00
31096;BME280;17749;51.962;8.560;2023-01-26T09:18:52;100831.22;;;-0.63;100.00
31096;BME280;17749;51.962;8.560;2023-01-26T09:21:19;100826.00;;;-0.63;100.00
31096;BME280;17749;51.962;8.560;2023-01-26T09:23:46;100832.28;;;-0.55;100.00
31096;BME280;17749;51.962;8.560;2023-01-26T09:26:13;100837.56;;;-0.52;100.00
31096;BME280;17749;51.962;8.560;2023-01-26T09:28:40;100834.97;;;-0.49;100.00
31096;BME280;17749;51.962;8.560;2023-01-26T09:31:09;100838.47;;;-0.50;100.00
31096;BME280;17749;51.962;8.560;2023-01-26T09:33:36;100835.84;;;-0.50;100.00
31096;BME280;17749;51.962;8.560;2023-01-26T09:36:05;100826.25;;;-0.49;100.00
31096;BME280;17749;51.962;8.560;2023-01-26T09:38:32;100825.47;;;-0.43;100.00
31096;BME280;17749;51.962;8.560;2023-01-26T09:41:06;100826.34;;;-0.43;100.00
31096;BME280;17749;51.962;8.560;2023-01-26T09:43:50;100828.03;;;-0.45;100.00
31096;BME280;17749;51.962;8.560;2023-01-26T09:46:22;100826.38;;;-0.40;100.00
31096;BME280;17749;51.962;8.560;2023-01-26T09:49:07;100829.09;;;-0.35;100.00
31096;BME280;17749;51.962;8.560;2023-01-26T09:51:42;100830.91;;;-0.31;100.00
31096;BME280;17749;51.962;8.560;2023-01-26T09:56:43;100823.75;;;-0.41;100.00
31096;BME280;17749;51.962;8.560;2023-01-26T10:05:01;100827.47;;;-0.27;100.00
31096;BME280;17749;51.962;8.560;2023-01-26T10:07:30;100828.38;;;-0.25;100.00
31096;BME280;17749;51.962;8.560;2023-01-26T10:09:57;100824.09;;;-0.20;100.00
31096;BME280;17749;51.962;8.560;2023-01-26T10:12:33;100824.00;;;-0.26;100.00
31096;BME280;17749;51.962;8.560;2023-01-26T10:15:09;100823.19;;;-0.22;100.00
31096;BME280;17749;51.962;8.560;2023-01-26T10:17:44;100814.34;;;-0.30;100.00
31096;BME280;17749;51.962;8.560;2023-01-26T10:25:40;100808.34;;;-0.23;100.00
31096;BME280;17749;51.962;8.560;2023-01-26T10:28:13;100803.97;;;-0.21;100.00
31096;BME280;17749;51.962;8.560;2023-01-26T10:30:44;100801.44;;;-0.18;100.00
31096;BME280;17749;51.962;8.560;2023-01-26T10:33:15;100806.72;;;-0.15;100.00
31096;BME280;17749;51.962;8.560;2023-01-26T10:35:44;100798.06;;;-0.09;100.00
31096;BME280;17749;51.962;8.560;2023-01-26T10:41:02;100802.44;;;-0.08;100.00
31096;BME280;17749;51.962;8.560;2023-01-26T10:43:36;100803.25;;;-0.11;100.00
31096;BME280;17749;51.962;8.560;2023-01-26T10:46:22;100792.72;;;-0.17;100.00
31096;BME280;17749;51.962;8.560;2023-01-26T10:51:37;100797.94;;;-0.17;100.00
31096;BME280;17749;51.962;8.560;2023-01-26T10:54:21;100795.41;;;-0.11;100.00
31096;BME280;17749;51.962;8.560;2023-01-26T10:57:00;100795.41;;;-0.11;100.00
31096;BME280;17749;51.962;8.560;2023-01-26T10:59:33;100796.34;;;-0.07;100.00
31096;BME280;17749;51.962;8.560;2023-01-26T11:02:19;100793.75;;;-0.06;100.00
31096;BME280;17749;51.962;8.560;2023-01-26T11:07:37;100784.88;;;-0.17;100.00
31096;BME280;17749;51.962;8.560;2023-01-26T11:10:33;100781.44;;;-0.13;100.00
31096;BME280;17749;51.962;8.560;2023-01-26T11:15:47;100784.97;;;-0.09;100.00
31096;BME280;17749;51.962;8.560;2023-01-26T11:21:21;100776.25;;;-0.08;100.00
31096;BME280;17749;51.962;8.560;2023-01-26T11:24:13;100768.44;;;-0.07;100.00
31096;BME280;17749;51.962;8.560;2023-01-26T11:29:43;100769.47;;;0.08;100.00
31096;BME280;17749;51.962;8.560;2023-01-26T11:35:44;100764.31;;;0.11;100.00
31096;BME280;17749;51.962;8.560;2023-01-26T11:41:01;100767.72;;;0.07;100.00
31096;BME280;17749;51.962;8.560;2023-01-26T11:43:52;100761.53;;;0.02;100.00
31096;BME280;17749;51.962;8.560;2023-01-26T11:46:57;100757.19;;;0.01;100.00
31096;BME280;17749;51.962;8.560;2023-01-26T11:49:43;100748.44;;;0.00;100.00
31096;BME280;17749;51.962;8.560;2023-01-26T12:00:22;100732.88;;;0.12;100.00
31096;BME280;17749;51.962;8.560;2023-01-26T12:03:02;100733.81;;;0.16;100.00
31096;BME280;17749;51.962;8.560;2023-01-26T12:05:41;100732.06;;;0.18;100.00
31096;BME280;17749;51.962;8.560;2023-01-26T12:10:50;100732.03;;;0.15;100.00
31096;BME280;17749;51.962;8.560;2023-01-26T12:13:38;100732.97;;;0.18;100.00
31096;BME280;17749;51.962;8.560;2023-01-26T12:16:22;100727.72;;;0.20;100.00
31096;BME280;17749;51.962;8.560;2023-01-26T12:19:24;100728.59;;;0.19;100.00
31096;BME280;17749;51.962;8.560;2023-01-26T12:21:47;100737.31;;;0.18;100.00
31096;BME280;17749;51.962;8.560;2023-01-26T12:24:24;100725.09;;;0.17;100.00
31096;BME280;17749;51.962;8.560;2023-01-26T12:27:23;100721.59;;;0.18;100.00
31096;BME280;17749;51.962;8.560;2023-01-26T12:32:32;100709.34;;;0.14;100.00
31096;BME280;17749;51.962;8.560;2023-01-26T12:34:59;100705.00;;;0.17;100.00
31096;BME280;17749;51.962;8.560;2023-01-26T12:40:21;100704.19;;;0.21;100.00
31096;BME280;17749;51.962;8.560;2023-01-26T12:45:39;100697.22;;;0.25;100.00
31096;BME280;17749;51.962;8.560;2023-01-26T12:48:22;100703.34;;;0.24;100.00
31096;BME280;17749;51.962;8.560;2023-01-26T12:50:59;100700.72;;;0.26;100.00
31096;BME280;17749;51.962;8.560;2023-01-26T12:53:33;100702.50;;;0.28;100.00
31096;BME280;17749;51.962;8.560;2023-01-26T12:59:23;100699.03;;;0.31;100.00
31096;BME280;17749;51.962;8.560;2023-01-26T13:02:25;100692.06;;;0.31;100.00
31096;BME280;17749;51.962;8.560;2023-01-26T13:04:53;100700.78;;;0.30;100.00
31096;BME280;17749;51.962;8.560;2023-01-26T13:07:27;100700.81;;;0.33;100.00
31096;BME280;17749;51.962;8.560;2023-01-26T13:10:09;100697.28;;;0.31;100.00
31096;BME280;17749;51.962;8.560;2023-01-26T13:18:56;100691.25;;;0.37;100.00
31096;BME280;17749;51.962;8.560;2023-01-26T13:26:51;100685.22;;;0.42;100.00
31096;BME280;17749;51.962;8.560;2023-01-26T13:32:49;100686.13;;;0.49;100.00
31096;BME280;17749;51.962;8.560;2023-01-26T13:34:55;100692.25;;;0.50;100.00
31096;BME280;17749;51.962;8.560;2023-01-26T13:40:22;100690.53;;;0.52;100.00
31096;BME280;17749;51.962;8.560;2023-01-26T13:43:18;100687.06;;;0.53;100.00
31096;BME280;17749;51.962;8.560;2023-01-26T13:51:07;100705.34;;;0.50;100.00
31096;BME280;17749;51.962;8.560;2023-01-26T13:53:39;100697.47;;;0.50;100.00
31096;BME280;17749;51.962;8.560;2023-01-26T13:56:40;100703.59;;;0.49;100.00
31096;BME280;17749;51.962;8.560;2023-01-26T13:59:17;100702.72;;;0.50;100.00
31096;BME280;17749;51.962;8.560;2023-01-26T14:01:50;100699.25;;;0.48;100.00
31096;BME280;17749;51.962;8.560;2023-01-26T14:04:28;100692.19;;;0.43;100.00
31096;BME280;17749;51.962;8.560;2023-01-26T14:06:56;100699.19;;;0.44;100.00
31096;BME280;17749;51.962;8.560;2023-01-26T14:09:29;100702.66;;;0.43;100.00
31096;BME280;17749;51.962;8.560;2023-01-26T14:12:00;100701.78;;;0.44;100.00
31096;BME280;17749;51.962;8.560;2023-01-26T14:14:30;100701.81;;;0.46;100.00
31096;BME280;17749;51.962;8.560;2023-01-26T14:16:59;100700.97;;;0.46;100.00
31096;BME280;17749;51.962;8.560;2023-01-26T14:19:27;100708.88;;;0.50;100.00
31096;BME280;17749;51.962;8.560;2023-01-26T14:21:56;100704.50;;;0.51;100.00
31096;BME280;17749;51.962;8.560;2023-01-26T14:24:32;100702.69;;;0.47;100.00
31096;BME280;17749;51.962;8.560;2023-01-26T14:27:01;100704.47;;;0.48;100.00
31096;BME280;17749;51.962;8.560;2023-01-26T14:29:29;100702.72;;;0.50;100.00
31096;BME280;17749;51.962;8.560;2023-01-26T14:31:58;100698.41;;;0.55;100.00
31096;BME280;17749;51.962;8.560;2023-01-26T14:34:28;100702.81;;;0.56;100.00
31096;BME280;17749;51.962;8.560;2023-01-26T14:37:12;100703.69;;;0.56;100.00
31096;BME280;17749;51.962;8.560;2023-01-26T14:39:42;100704.53;;;0.54;100.00
31096;BME280;17749;51.962;8.560;2023-01-26T14:42:16;100708.03;;;0.54;100.00
31096;BME280;17749;51.962;8.560;2023-01-26T14:44:44;100702.81;;;0.56;100.00
31096;BME280;17749;51.962;8.560;2023-01-26T14:47:22;100706.34;;;0.61;100.00
31096;BME280;17749;51.962;8.560;2023-01-26T14:49:57;100706.34;;;0.61;100.00
31096;BME280;17749;51.962;8.560;2023-01-26T14:52:28;100708.97;;;0.62;100.00
31096;BME280;17749;51.962;8.560;2023-01-26T14:54:57;100714.25;;;0.64;100.00
31096;BME280;17749;51.962;8.560;2023-01-26T14:57:30;100709.00;;;0.64;100.00
31096;BME280;17749;51.962;8.560;2023-01-26T14:59:58;100715.16;;;0.66;100.00
31096;BME280;17749;51.962;8.560;2023-01-26T15:02:39;100718.59;;;0.62;100.00
31096;BME280;17749;51.962;8.560;2023-01-26T15:05:13;100718.53;;;0.56;100.00
31096;BME280;17749;51.962;8.560;2023-01-26T15:07:48;100722.06;;;0.58;100.00
31096;BME280;17749;51.962;8.560;2023-01-26T15:10:42;100723.81;;;0.59;100.00
31096;BME280;17749;51.962;8.560;2023-01-26T15:13:23;100729.06;;;0.62;100.00
31096;BME280;17749;51.962;8.560;2023-01-26T15:16:22;100720.31;;;0.60;100.00
31096;BME280;17749;51.962;8.560;2023-01-26T15:19:02;100729.94;;;0.61;100.00
31096;BME280;17749;51.962;8.560;2023-01-26T15:21:36;100727.31;;;0.61;100.00
31096;BME280;17749;51.962;8.560;2023-01-26T15:24:12;100720.28;;;0.57;100.00
31096;BME280;17749;51.962;8.560;2023-01-26T15:26:39;100715.06;;;0.58;100.00
31096;BME280;17749;51.962;8.560;2023-01-26T15:29:26;100727.31;;;0.58;100.00
31096;BME280;17749;51.962;8.560;2023-01-26T15:31:55;100725.56;;;0.60;100.00
31096;BME280;17749;51.962;8.560;2023-01-26T15:34:40;100721.16;;;0.57;100.00
31096;BME280;17749;51.962;8.560;2023-01-26T15:37:28;100716.75;;;0.55;100.00
31096;BME280;17749;51.962;8.560;2023-01-26T15:39:55;100710.63;;;0.51;100.00
31096;BME280;17749;51.962;8.560;2023-01-26T15:42:24;100720.22;;;0.51;100.00
31096;BME280;17749;51.962;8.560;2023-01-26T15:44:56;100705.38;;;0.51;100.00
31096;BME280;17749;51.962;8.560;2023-01-26T15:47:23;100714.97;;;0.48;100.00
31096;BME280;17749;51.962;8.560;2023-01-26T15:49:50;100707.03;;;0.43;100.00
31096;BME280;17749;51.962;8.560;2023-01-26T15:52:19;100702.66;;;0.43;100.00
31096;BME280;17749;51.962;8.560;2023-01-26T15:54:47;100707.97;;;0.50;100.00
31096;BME280;17749;51.962;8.560;2023-01-26T15:57:17;100716.78;;;0.56;100.00
31096;BME280;17749;51.962;8.560;2023-01-26T15:59:44;100715.03;;;0.55;100.00
31096;BME280;17749;51.962;8.560;2023-01-26T16:02:20;100711.47;;;0.49;100.00
31096;BME280;17749;51.962;8.560;2023-01-26T16:04:47;100713.22;;;0.50;100.00
31096;BME280;17749;51.962;8.560;2023-01-26T16:07:16;100718.50;;;0.53;100.00
31096;BME280;17749;51.962;8.560;2023-01-26T16:09:44;100718.50;;;0.53;100.00
31096;BME280;17749;51.962;8.560;2023-01-26T16:12:16;100717.63;;;0.54;100.00
31096;BME280;17749;51.962;8.560;2023-01-26T16:14:59;100711.53;;;0.55;100.00
31096;BME280;17749;51.962;8.560;2023-01-26T16:17:26;100716.81;;;0.58;100.00
31096;BME280;17749;51.962;8.560;2023-01-26T16:19:53;100711.59;;;0.61;100.00
31096;BME280;17749;51.962;8.560;2023-01-26T16:22:20;100708.97;;;0.62;100.00
31096;BME280;17749;51.962;8.560;2023-01-26T16:24:47;100706.38;;;0.64;100.00
31096;BME280;17749;51.962;8.560;2023-01-26T16:27:14;100705.53;;;0.68;100.00
31096;BME280;17749;51.962;8.560;2023-01-26T16:29:41;100702.91;;;0.68;100.00
31096;BME280;17749;51.962;8.560;2023-01-26T16:32:28;100707.31;;;0.69;100.00
31096;BME280;17749;51.962;8.560;2023-01-26T16:34:55;100707.31;;;0.71;100.00
31096;BME280;17749;51.962;8.560;2023-01-26T16:37:22;100701.19;;;0.70;100.00
31096;BME280;17749;51.962;8.560;2023-01-26T16:39:49;100707.31;;;0.71;100.00
31096;BME280;17749;51.962;8.560;2023-01-26T16:42:18;100707.31;;;0.71;100.00
31096;BME280;17749;51.962;8.560;2023-01-26T16:44:46;100714.28;;;0.70;100.00
31096;BME280;17749;51.962;8.560;2023-01-26T16:47:13;100715.13;;;0.63;100.00
31096;BME280;17749;51.962;8.560;2023-01-26T16:49:40;100717.75;;;0.68;100.00
31096;BME280;17749;51.962;8.560;2023-01-26T16:52:08;100722.16;;;0.70;100.00
31096;BME280;17749;51.962;8.560;2023-01-26T16:54:35;100718.69;;;0.71;100.00
31096;BME280;17749;51.962;8.560;2023-01-26T16:57:02;100723.03;;;0.69;100.00
31096;BME280;17749;51.962;8.560;2023-01-26T16:59:29;100721.25;;;0.63;100.00
31096;BME280;17749;51.962;8.560;2023-01-26T17:01:56;100718.59;;;0.62;100.00
31096;BME280;17749;51.962;8.560;2023-01-26T17:04:23;100720.38;;;0.63;100.00
31096;BME280;17749;51.962;8.560;2023-01-26T17:06:50;100721.25;;;0.63;100.00
31096;BME280;17749;51.962;8.560;2023-01-26T17:09:17;100720.38;;;0.63;100.00
31096;BME280;17749;51.962;8.560;2023-01-26T17:11:46;100723.00;;;0.63;100.00
31096;BME280;17749;51.962;8.560;2023-01-26T17:14:13;100722.13;;;0.65;100.00
31096;BME280;17749;51.962;8.560;2023-01-26T17:16:40;100727.34;;;0.64;100.00
31096;BME280;17749;51.962;8.560;2023-01-26T17:19:07;100730.84;;;0.63;100.00
31096;BME280;17749;51.962;8.560;2023-01-26T17:21:35;100726.44;;;0.62;100.00
31096;BME280;17749;51.962;8.560;2023-01-26T17:24:02;100733.50;;;0.68;100.00
31096;BME280;17749;51.962;8.560;2023-01-26T17:26:29;100741.38;;;0.69;100.00
31096;BME280;17749;51.962;8.560;2023-01-26T17:28:56;100740.50;;;0.70;100.00
31096;BME280;17749;51.962;8.560;2023-01-26T17:31:23;100741.38;;;0.69;100.00
31096;BME280;17749;51.962;8.560;2023-01-26T17:33:51;100738.75;;;0.68;100.00
31096;BME280;17749;51.962;8.560;2023-01-26T17:36:19;100744.84;;;0.68;100.00
31096;BME280;17749;51.962;8.560;2023-01-26T17:38:47;100743.13;;;0.70;100.00
31096;BME280;17749;51.962;8.560;2023-01-26T17:41:15;100756.31;;;0.75;100.00
31096;BME280;17749;51.962;8.560;2023-01-26T17:43:42;100755.44;;;0.74;100.00
31096;BME280;17749;51.962;8.560;2023-01-26T17:46:14;100752.78;;;0.73;100.00
31096;BME280;17749;51.962;8.560;2023-01-26T17:48:41;100745.78;;;0.72;100.00
31096;BME280;17749;51.962;8.560;2023-01-26T17:51:16;100755.41;;;0.71;100.00
31096;BME280;17749;51.962;8.560;2023-01-26T17:53:45;100758.88;;;0.70;100.00
31096;BME280;17749;51.962;8.560;2023-01-26T17:56:14;100757.13;;;0.71;100.00
31096;BME280;17749;51.962;8.560;2023-01-26T17:58:46;100763.25;;;0.71;100.00
31096;BME280;17749;51.962;8.560;2023-01-26T18:01:14;100765.03;;;0.75;100.00
31096;BME280;17749;51.962;8.560;2023-01-26T18:03:42;100761.50;;;0.73;100.00
31096;BME280;17749;51.962;8.560;2023-01-26T18:06:09;100764.13;;;0.73;100.00
31096;BME280;17749;51.962;8.560;2023-01-26T18:08:37;100761.53;;;0.75;100.00
31096;BME280;17749;51.962;8.560;2023-01-26T18:11:06;100771.19;;;0.77;100.00
31096;BME280;17749;51.962;8.560;2023-01-26T18:13:34;100758.94;;;0.76;100.00
31096;BME280;17749;51.962;8.560;2023-01-26T18:16:01;100758.06;;;0.77;100.00
31096;BME280;17749;51.962;8.560;2023-01-26T18:18:28;100757.19;;;0.78;100.00
31096;BME280;17749;51.962;8.560;2023-01-26T18:20:55;100755.44;;;0.77;100.00
31096;BME280;17749;51.962;8.560;2023-01-26T18:23:23;100758.06;;;0.77;100.00
31096;BME280;17749;51.962;8.560;2023-01-26T18:25:50;100755.44;;;0.74;100.00
31096;BME280;17749;51.962;8.560;2023-01-26T18:28:17;100758.03;;;0.76;100.00
31096;BME280;17749;51.962;8.560;2023-01-26T18:30:44;100749.34;;;0.77;100.00
31096;BME280;17749;51.962;8.560;2023-01-26T18:33:11;100749.38;;;0.80;100.00
31096;BME280;17749;51.962;8.560;2023-01-26T18:35:38;100751.94;;;0.78;100.00
31096;BME280;17749;51.962;8.560;2023-01-26T18:38:06;100750.22;;;0.80;100.00
31096;BME280;17749;51.962;8.560;2023-01-26T18:40:33;100752.00;;;0.81;100.00
31096;BME280;17749;51.962;8.560;2023-01-26T18:43:00;100747.63;;;0.82;100.00
31096;BME280;17749;51.962;8.560;2023-01-26T18:45:26;100754.59;;;0.80;100.00
31096;BME280;17749;51.962;8.560;2023-01-26T18:47:53;100756.38;;;0.82;100.00
31096;BME280;17749;51.962;8.560;2023-01-26T18:50:20;100753.75;;;0.82;100.00
31096;BME280;17749;51.962;8.560;2023-01-26T18:52:47;100748.50;;;0.82;100.00
31096;BME280;17749;51.962;8.560;2023-01-26T18:55:14;100753.75;;;0.82;100.00
31096;BME280;17749;51.962;8.560;2023-01-26T18:57:42;100752.88;;;0.82;100.00
31096;BME280;17749;51.962;8.560;2023-01-26T19:00:09;100745.00;;;0.83;100.00
31096;BME280;17749;51.962;8.560;2023-01-26T19:02:36;100756.34;;;0.81;100.00
31096;BME280;17749;51.962;8.560;2023-01-26T19:05:07;100750.25;;;0.83;100.00
31096;BME280;17749;51.962;8.560;2023-01-26T19:07:35;100752.88;;;0.83;100.00
31096;BME280;17749;51.962;8.560;2023-01-26T19:10:02;100752.03;;;0.84;100.00
31096;BME280;17749;51.962;8.560;2023-01-26T19:12:30;100753.78;;;0.85;100.00
31096;BME280;17749;51.962;8.560;2023-01-26T19:14:57;100759.91;;;0.86;100.00
31096;BME280;17749;51.962;8.560;2023-01-26T19:17:24;100760.78;;;0.88;100.00
31096;BME280;17749;51.962;8.560;2023-01-26T19:19:51;100762.53;;;0.87;100.00
31096;BME280;17749;51.962;8.560;2023-01-26T19:22:18;100763.44;;;0.90;100.00
31096;BME280;17749;51.962;8.560;2023-01-26T19:24:45;100755.59;;;0.90;100.00
31096;BME280;17749;51.962;8.560;2023-01-26T19:27:12;100754.69;;;0.89;100.00
31096;BME280;17749;51.962;8.560;2023-01-26T19:29:39;100759.06;;;0.92;100.00
31096;BME280;17749;51.962;8.560;2023-01-26T19:32:06;100752.09;;;0.91;100.00
31096;BME280;17749;51.962;8.560;2023-01-26T19:34:33;100754.72;;;0.91;100.00
31096;BME280;17749;51.962;8.560;2023-01-26T19:37:00;100754.72;;;0.94;100.00
31096;BME280;17749;51.962;8.560;2023-01-26T19:39:27;100759.06;;;0.92;100.00
31096;BME280;17749;51.962;8.560;2023-01-26T19:41:55;100752.94;;;0.88;100.00
31096;BME280;17749;51.962;8.560;2023-01-26T19:44:22;100753.81;;;0.88;100.00
31096;BME280;17749;51.962;8.560;2023-01-26T19:46:50;100761.69;;;0.90;100.00
31096;BME280;17749;51.962;8.560;2023-01-26T19:49:18;100762.56;;;0.91;100.00
31096;BME280;17749;51.962;8.560;2023-01-26T19:51:47;100754.72;;;0.92;100.00
31096;BME280;17749;51.962;8.560;2023-01-26T19:54:14;100759.06;;;0.92;100.00
31096;BME280;17749;51.962;8.560;2023-01-26T19:56:41;100765.22;;;0.92;100.00
31096;BME280;17749;51.962;8.560;2023-01-26T19:59:10;100759.06;;;0.92;100.00
31096;BME280;17749;51.962;8.560;2023-01-26T20:01:37;100761.69;;;0.92;100.00
31096;BME280;17749;51.962;8.560;2023-01-26T20:04:07;100762.56;;;0.91;100.00
31096;BME280;17749;51.962;8.560;2023-01-26T20:06:37;100765.16;;;0.89;100.00
31096;BME280;17749;51.962;8.560;2023-01-26T20:09:06;100761.66;;;0.88;100.00
31096;BME280;17749;51.962;8.560;2023-01-26T20:11:34;100759.94;;;0.87;100.00
31096;BME280;17749;51.962;8.560;2023-01-26T20:14:03;100764.28;;;0.88;100.00
31096;BME280;17749;51.962;8.560;2023-01-26T20:16:31;100761.66;;;0.88;100.00
31096;BME280;17749;51.962;8.560;2023-01-26T20:19:00;100770.41;;;0.89;100.00
31096;BME280;17749;51.962;8.560;2023-01-26T20:21:27;100773.06;;;0.91;100.00
31096;BME280;17749;51.962;8.560;2023-01-26T20:23:54;100764.31;;;0.92;100.00
31096;BME280;17749;51.962;8.560;2023-01-26T20:26:23;100752.97;;;0.90;100.00
31096;BME280;17749;51.962;8.560;2023-01-26T20:28:52;100752.09;;;0.91;100.00
31096;BME280;17749;51.962;8.560;2023-01-26T20:31:24;100748.63;;;0.93;100.00
31096;BME280;17749;51.962;8.560;2023-01-26T20:33:51;100752.09;;;0.94;100.00